Time;durP1;ratioP1;P1;durP2;ratioP2;P2;SDS_P1;SDS_P2;PMS_P1;PMS_P2;Temp;Humidity;BMP_temperature;BMP_pressure;BME280_temperature;BME280_humidity;BME280_pressure;Samples;Min_cycle;Max_cycle;Signal;HPM_P1;HPM_P2
2021/05/25 00:02:06;;;;;;;6.80;6.20;;;;;;;12.92;85.46;99129.22;5047150;28;20213;-83
2021/05/25 00:04:33;;;;;;;6.90;6.40;;;;;;;12.78;85.67;99081.16;5072646;28;20235;-81
2021/05/25 00:07:00;;;;;;;7.17;6.57;;;;;;;12.86;86.06;99106.00;5077627;28;20287;-81
2021/05/25 00:09:31;;;;;;;6.70;6.17;;;;;;;12.86;85.50;99114.06;5116486;28;20288;-80
2021/05/25 00:12:36;;;;;;;7.67;7.07;;;;;;;12.79;86.20;99125.78;5114885;28;20220;-80
2021/05/25 00:15:17;;;;;;;7.50;6.90;;;;;;;12.67;87.35;99130.47;5098808;28;20232;-81
2021/05/25 00:17:46;;;;;;;7.77;7.10;;;;;;;12.62;87.38;99130.38;5112060;28;20224;-81
2021/05/25 00:20:22;;;;;;;7.13;6.53;;;;;;;12.54;87.74;99122.72;5106158;28;20232;-81
2021/05/25 00:22:52;;;;;;;10.70;9.63;;;;;;;12.55;87.58;99127.03;5085854;28;20584;-80
2021/05/25 00:25:22;;;;;;;8.70;7.90;;;;;;;12.58;88.18;99166.03;5090638;28;20231;-80
2021/05/25 00:27:55;;;;;;;8.50;7.80;;;;;;;12.55;87.98;99171.91;5096920;28;20216;-81
2021/05/25 00:30:44;;;;;;;8.63;7.93;;;;;;;12.57;88.51;99175.16;5119953;22;20244;-82
2021/05/25 00:33:30;;;;;;;8.23;7.53;;;;;;;12.46;88.46;99168.00;5096599;28;20227;-80
2021/05/25 00:36:11;;;;;;;8.97;8.27;;;;;;;12.47;88.73;99177.66;5075336;28;20213;-81
2021/05/25 00:38:46;;;;;;;9.00;8.30;;;;;;;12.51;88.59;99166.19;5093819;28;20300;-80
2021/05/25 00:41:19;;;;;;;8.97;8.17;;;;;;;12.51;88.71;99160.00;5061958;28;20256;-81
2021/05/25 00:44:11;;;;;;;9.17;8.40;;;;;;;12.44;89.20;99138.69;5096391;28;20204;-79
2021/05/25 00:47:16;;;;;;;9.20;8.40;;;;;;;12.45;89.02;99150.25;5096988;28;20258;-79
2021/05/25 00:50:12;;;;;;;10.97;8.50;;;;;;;12.36;89.52;99139.88;5107017;28;20224;-79
2021/05/25 00:52:52;;;;;;;9.27;8.57;;;;;;;12.41;89.50;99151.78;5117133;22;20231;-81
2021/05/25 00:55:31;;;;;;;9.27;8.40;;;;;;;12.39;89.89;99135.91;5090741;28;20233;-80
2021/05/25 00:58:09;;;;;;;9.77;8.87;;;;;;;12.38;89.96;99122.72;5092378;28;20224;-79
2021/05/25 01:01:02;;;;;;;8.83;8.13;;;;;;;12.39;90.26;99143.97;5109516;28;20296;-79
2021/05/25 01:03:31;;;;;;;8.77;7.97;;;;;;;12.39;90.40;99135.09;5075627;28;20220;-81
2021/05/25 01:06:06;;;;;;;9.73;8.90;;;;;;;12.39;90.29;99135.91;5090598;28;20235;-79
2021/05/25 01:08:38;;;;;;;9.77;8.97;;;;;;;12.40;90.50;99132.16;5075669;28;20221;-80
2021/05/25 01:11:10;;;;;;;9.80;8.90;;;;;;;12.28;90.44;99107.22;5069251;28;20289;-80
2021/05/25 01:13:45;;;;;;;10.07;9.17;;;;;;;12.34;90.75;99122.38;5075456;28;20673;-80
2021/05/25 01:16:23;;;;;;;9.50;8.70;;;;;;;12.42;90.49;99129.22;5107301;28;20831;-81
2021/05/25 01:18:51;;;;;;;9.23;8.43;;;;;;;12.43;90.47;99117.41;5090680;28;20232;-80
2021/05/25 01:21:20;;;;;;;9.77;8.93;;;;;;;12.38;90.40;99112.78;5088689;28;20244;-80
2021/05/25 01:23:55;;;;;;;9.87;9.07;;;;;;;12.40;90.48;99101.81;5091085;28;20288;-80
2021/05/25 01:26:27;;;;;;;9.37;8.57;;;;;;;12.40;90.24;99101.81;5089583;28;20228;-80
2021/05/25 01:29:05;;;;;;;9.13;8.33;;;;;;;12.47;90.47;99121.25;5108119;28;20228;-81
2021/05/25 01:31:36;;;;;;;9.50;8.60;;;;;;;12.52;90.09;99119.47;5072433;28;20264;-80
2021/05/25 01:34:07;;;;;;;9.80;9.00;;;;;;;12.47;90.06;99121.25;5073428;28;20224;-79
2021/05/25 01:36:38;;;;;;;9.83;8.83;;;;;;;12.43;90.60;99115.56;5097049;28;20231;-81
2021/05/25 01:39:08;;;;;;;9.77;8.87;;;;;;;12.40;90.56;99121.44;5108172;28;20224;-81
2021/05/25 01:41:40;;;;;;;9.33;8.53;;;;;;;12.41;90.69;99123.03;5089444;28;20221;-80
2021/05/25 01:44:10;;;;;;;9.67;8.77;;;;;;;12.42;90.87;99126.53;5070529;28;20251;-80
2021/05/25 01:46:48;;;;;;;9.03;8.23;;;;;;;12.35;90.56;99113.28;5086183;28;20196;-80
2021/05/25 01:49:20;;;;;;;9.03;8.33;;;;;;;12.30;90.88;99113.19;5085239;28;20292;-81
2021/05/25 01:51:51;;;;;;;9.53;8.83;;;;;;;12.34;90.97;99123.22;5098466;28;20233;-80
2021/05/25 01:54:23;;;;;;;9.23;8.53;;;;;;;12.28;91.04;99118.78;5090657;28;20234;-81
2021/05/25 01:56:53;;;;;;;9.40;8.60;;;;;;;12.36;90.90;99134.50;5074035;28;20235;-80
2021/05/25 01:59:21;;;;;;;9.70;8.80;;;;;;;12.29;90.77;99125.81;5105212;28;20659;-80
2021/05/25 02:01:49;;;;;;;9.20;8.40;;;;;;;12.39;90.87;99137.78;5097299;28;20243;-80
2021/05/25 02:04:20;;;;;;;9.63;8.83;;;;;;;12.39;91.02;99140.47;5066728;28;20259;-81
2021/05/25 02:06:51;;;;;;;9.43;8.63;;;;;;;12.36;90.80;99133.72;5068636;28;20320;-81
2021/05/25 02:09:18;;;;;;;9.90;9.00;;;;;;;12.40;90.89;99153.66;5067956;28;20232;-81
2021/05/25 02:11:45;;;;;;;10.00;9.20;;;;;;;12.39;91.00;99156.56;5055835;28;20228;-80
2021/05/25 02:14:13;;;;;;;10.43;9.53;;;;;;;12.38;91.27;99155.75;5070593;28;20220;-80
2021/05/25 02:16:40;;;;;;;10.67;9.77;;;;;;;12.32;91.16;99148.66;5065619;28;20232;-81
2021/05/25 02:19:09;;;;;;;10.60;9.67;;;;;;;12.33;91.51;99148.44;5065868;28;20296;-80
2021/05/25 02:21:37;;;;;;;10.17;9.13;;;;;;;12.36;91.61;99147.94;5064583;28;20282;-81
2021/05/25 02:24:05;;;;;;;10.03;9.13;;;;;;;12.33;91.40;99142.25;5054044;28;20525;-80
2021/05/25 02:26:34;;;;;;;10.50;9.70;;;;;;;12.35;91.62;99146.34;5083265;28;20303;-79
2021/05/25 02:29:03;;;;;;;10.20;9.30;;;;;;;12.33;91.53;99145.75;5102154;28;20230;-81
2021/05/25 02:31:34;;;;;;;9.30;8.53;;;;;;;12.38;91.27;99160.31;5085786;28;20228;-79
2021/05/25 02:34:03;;;;;;;9.80;8.87;;;;;;;12.38;91.37;99155.75;5080990;28;20235;-80
2021/05/25 02:36:33;;;;;;;9.37;8.57;;;;;;;12.24;91.18;99132.94;5047670;28;20221;-80
2021/05/25 02:39:07;;;;;;;8.40;7.60;;;;;;;12.28;91.47;99145.66;5072653;28;20228;-81
2021/05/25 02:41:39;;;;;;;8.57;7.87;;;;;;;12.27;91.39;99146.69;5085709;28;20232;-80
2021/05/25 02:44:08;;;;;;;6.23;5.73;;;;;;;12.29;91.38;99146.47;5072466;28;20242;-80
2021/05/25 02:46:36;;;;;;;5.30;4.90;;;;;;;12.35;91.27;99162.44;5105927;28;20221;-80
2021/05/25 02:49:04;;;;;;;4.20;3.90;;;;;;;12.43;91.02;99171.97;5069478;28;20227;-80
2021/05/25 02:51:33;;;;;;;4.60;4.20;;;;;;;12.41;90.67;99165.22;5064946;28;20256;-82
2021/05/25 02:54:01;;;;;;;4.00;3.70;;;;;;;12.48;89.92;99172.06;5062803;28;20628;-80
2021/05/25 02:56:27;;;;;;;2.90;2.70;;;;;;;12.50;89.92;99185.25;5084931;28;20225;-80
2021/05/25 02:58:57;;;;;;;3.60;3.30;;;;;;;12.46;89.99;99168.78;5051041;28;20229;-81
2021/05/25 03:01:24;;;;;;;3.17;2.97;;;;;;;12.50;89.91;99180.72;5071102;28;20308;-81
2021/05/25 03:03:50;;;;;;;3.30;3.10;;;;;;;12.49;89.66;99183.63;5019639;28;20246;-81
2021/05/25 03:06:17;;;;;;;2.83;2.63;;;;;;;12.51;89.63;99189.56;5055531;28;20221;-80
2021/05/25 03:08:44;;;;;;;2.80;2.60;;;;;;;12.54;89.50;99197.16;5043678;28;20210;-81
2021/05/25 03:11:11;;;;;;;2.67;2.47;;;;;;;12.49;89.53;99186.31;5028889;28;20226;-81
2021/05/25 03:13:40;;;;;;;2.40;2.20;;;;;;;12.55;89.31;99188.03;5057281;28;20227;-81
2021/05/25 03:16:11;;;;;;;2.50;1.97;;;;;;;12.64;88.30;99198.16;5081949;28;20225;-80
2021/05/25 03:18:38;;;;;;;2.03;1.90;;;;;;;12.62;88.71;99186.81;5067838;28;20177;-80
2021/05/25 03:21:08;;;;;;;2.50;2.30;;;;;;;12.76;87.16;99198.06;5067407;28;20676;-80
2021/05/25 03:23:36;;;;;;;1.97;1.87;;;;;;;12.74;87.74;99203.66;5048335;28;20231;-80
2021/05/25 03:26:03;;;;;;;2.17;1.90;;;;;;;12.72;87.33;99197.75;5055668;28;20229;-79
2021/05/25 03:28:32;;;;;;;2.00;1.90;;;;;;;12.73;87.58;99210.13;5037531;28;20227;-80
2021/05/25 03:31:01;;;;;;;2.47;2.20;;;;;;;12.62;87.99;99197.56;5068320;28;20229;-80
2021/05/25 03:33:29;;;;;;;3.07;2.40;;;;;;;12.63;88.09;99198.38;5066601;28;20229;-81
2021/05/25 03:35:56;;;;;;;2.80;1.50;;;;;;;12.76;85.84;99184.63;5083663;28;20232;-80
2021/05/25 03:38:25;;;;;;;1.50;1.40;;;;;;;12.83;84.52;99203.28;5074304;28;20275;-80
2021/05/25 03:40:52;;;;;;;1.40;1.30;;;;;;;12.94;83.41;99203.19;5071680;28;20304;-80
2021/05/25 03:43:20;;;;;;;2.67;1.50;;;;;;;12.95;82.61;99195.94;5053652;28;20229;-79
2021/05/25 03:45:50;;;;;;;1.20;1.00;;;;;;;13.12;80.39;99208.34;5065792;28;20217;-80
2021/05/25 03:48:17;;;;;;;2.67;0.80;;;;;;;13.08;80.73;99190.22;5036268;28;20576;-80
2021/05/25 03:50:44;;;;;;;2.33;0.90;;;;;;;13.11;80.61;99195.94;5030654;28;20296;-80
2021/05/25 03:53:13;;;;;;;1.37;1.00;;;;;;;13.04;80.99;99203.34;5062379;28;20224;-80
2021/05/25 03:55:48;;;;;;;1.07;1.03;;;;;;;13.01;80.72;99203.03;5068829;28;20235;-79
2021/05/25 04:01:03;;;;;;;2.70;1.00;;;;;;;13.08;79.82;99196.41;5088991;28;20318;-80
2021/05/25 04:03:32;;;;;;;1.17;0.87;;;;;;;13.16;78.73;99214.03;5118805;28;20223;-80
2021/05/25 04:06:00;;;;;;;0.80;0.80;;;;;;;13.20;78.41;99225.97;5070343;28;20233;-80
2021/05/25 04:08:29;;;;;;;1.73;0.73;;;;;;;13.22;78.23;99229.19;5122888;28;20231;-80
2021/05/25 04:10:56;;;;;;;0.60;0.60;;;;;;;13.15;77.95;99221.31;5123467;28;20642;-80
2021/05/25 04:13:24;;;;;;;1.73;0.60;;;;;;;13.16;78.55;99216.72;5130085;27;20227;-80
2021/05/25 04:15:52;;;;;;;0.63;0.63;;;;;;;13.12;78.17;99221.78;5122993;27;20554;-81
2021/05/25 04:18:19;;;;;;;2.67;0.60;;;;;;;13.20;76.97;99213.28;5096281;27;20231;-81
2021/05/25 04:20:46;;;;;;;1.43;1.03;;;;;;;13.27;76.34;99225.78;5103772;27;20223;-81
2021/05/25 04:23:14;;;;;;;0.90;0.70;;;;;;;13.32;76.71;99225.84;5094461;28;20223;-81
2021/05/25 04:25:42;;;;;;;1.03;0.70;;;;;;;13.37;76.98;99234.00;5082779;28;20274;-80
2021/05/25 04:28:09;;;;;;;1.47;0.50;;;;;;;13.51;74.67;99225.31;5082131;28;20228;-81
2021/05/25 04:30:36;;;;;;;0.60;0.60;;;;;;;13.63;73.79;99239.47;5084278;28;20219;-79
2021/05/25 04:33:03;;;;;;;0.50;0.50;;;;;;;13.62;73.79;99228.97;5088485;27;20215;-81
2021/05/25 04:35:30;;;;;;;0.97;0.60;;;;;;;13.72;73.00;99245.25;5070754;28;20520;-80
2021/05/25 04:37:58;;;;;;;1.47;0.60;;;;;;;13.76;72.83;99235.63;5114968;28;20231;-81
2021/05/25 04:40:25;;;;;;;0.90;0.53;;;;;;;13.80;72.35;99242.13;5085196;28;20528;-80
2021/05/25 04:42:52;;;;;;;0.50;0.50;;;;;;;13.91;71.62;99248.44;5084269;28;20269;-80
2021/05/25 04:45:19;;;;;;;2.53;0.60;;;;;;;13.94;71.45;99250.66;5091267;28;20286;-80
2021/05/25 04:47:46;;;;;;;0.77;0.53;;;;;;;14.03;70.42;99241.88;5122352;28;20531;-80
2021/05/25 04:50:14;;;;;;;1.03;0.60;;;;;;;14.15;70.33;99247.13;5103975;28;20219;-80
2021/05/25 04:52:41;;;;;;;0.50;0.50;;;;;;;14.14;70.16;99252.78;5089055;28;20237;-80
2021/05/25 04:55:12;;;;;;;1.27;0.50;;;;;;;14.21;69.51;99251.53;5120388;27;20293;-81
2021/05/25 04:57:47;;;;;;;1.97;0.50;;;;;;;14.22;69.53;99253.16;5099839;28;20239;-81
2021/05/25 05:00:16;;;;;;;0.57;0.57;;;;;;;14.23;70.48;99251.28;5098268;28;20226;-81
2021/05/25 05:02:43;;;;;;;0.40;0.40;;;;;;;14.24;70.26;99267.19;5098687;28;20608;-79
2021/05/25 05:05:11;;;;;;;1.87;0.50;;;;;;;14.26;68.98;99265.06;5107345;27;20273;-83
2021/05/25 05:07:38;;;;;;;1.83;0.60;;;;;;;14.35;68.85;99282.41;5118902;27;20611;-85
2021/05/25 05:10:06;;;;;;;0.60;0.50;;;;;;;14.29;68.45;99280.72;5116472;27;20532;-83
2021/05/25 05:12:33;;;;;;;0.60;0.47;;;;;;;14.32;67.64;99280.22;5098741;28;20529;-82
2021/05/25 05:15:01;;;;;;;0.70;0.47;;;;;;;14.52;67.17;99299.31;5102432;27;20226;-82
2021/05/25 05:17:29;;;;;;;0.40;0.40;;;;;;;14.52;67.42;99291.25;5098543;28;20254;-82
2021/05/25 05:19:56;;;;;;;0.40;0.40;;;;;;;14.42;67.47;99295.69;5120484;27;20226;-81
2021/05/25 05:22:23;;;;;;;0.50;0.50;;;;;;;14.40;67.88;99300.53;5121823;28;20236;-79
2021/05/25 05:24:51;;;;;;;0.87;0.60;;;;;;;14.43;67.43;99308.94;5120948;28;20305;-80
2021/05/25 05:27:18;;;;;;;0.50;0.50;;;;;;;14.40;67.88;99314.84;5122276;28;20631;-81
2021/05/25 05:29:45;;;;;;;1.33;0.60;;;;;;;14.33;68.09;99303.38;5120832;28;20236;-80
2021/05/25 05:32:12;;;;;;;1.30;0.60;;;;;;;14.33;68.46;99306.09;5122096;28;20283;-80
2021/05/25 05:34:39;;;;;;;0.83;0.40;;;;;;;14.38;68.24;99318.84;5119613;28;20737;-81
2021/05/25 05:37:06;;;;;;;0.50;0.50;;;;;;;14.36;68.46;99320.97;5115516;28;20225;-79
2021/05/25 05:39:33;;;;;;;1.03;0.60;;;;;;;14.35;67.55;99330.09;5101908;27;20215;-80
2021/05/25 05:42:00;;;;;;;0.60;0.60;;;;;;;14.37;67.22;99338.78;5098072;28;20232;-80
2021/05/25 05:44:27;;;;;;;1.13;0.60;;;;;;;14.33;68.17;99334.91;5084539;28;20225;-80
2021/05/25 05:46:54;;;;;;;1.03;0.93;;;;;;;14.44;66.52;99350.19;5131554;27;20258;-79
2021/05/25 05:49:22;;;;;;;0.80;0.57;;;;;;;14.28;67.33;99351.00;5132211;27;20223;-79
2021/05/25 05:51:50;;;;;;;1.20;0.40;;;;;;;14.39;66.79;99360.91;5119949;28;20256;-80
2021/05/25 05:54:17;;;;;;;1.80;0.70;;;;;;;14.39;66.03;99371.69;5091355;28;20220;-80
2021/05/25 05:56:47;;;;;;;0.43;0.40;;;;;;;14.43;64.38;99372.81;5120316;28;20225;-79
2021/05/25 05:59:16;;;;;;;0.40;0.40;;;;;;;14.53;61.94;99370.25;5085880;28;20777;-79
2021/05/25 06:01:43;;;;;;;1.30;0.50;;;;;;;14.41;62.29;99374.94;5102791;28;20232;-80
2021/05/25 06:04:10;;;;;;;0.50;0.40;;;;;;;14.47;61.32;99382.00;5101834;28;20213;-80
2021/05/25 06:06:38;;;;;;;0.93;0.30;;;;;;;14.56;60.39;99395.91;5101117;28;20223;-80
2021/05/25 06:09:05;;;;;;;1.23;0.40;;;;;;;14.52;59.75;99384.78;5078201;28;20231;-79
2021/05/25 06:11:32;;;;;;;0.53;0.40;;;;;;;14.34;58.07;99379.66;5104503;28;20228;-79
2021/05/25 06:13:59;;;;;;;0.63;0.50;;;;;;;14.43;57.09;99399.75;5104547;28;20219;-81
2021/05/25 06:16:31;;;;;;;0.30;0.30;;;;;;;14.41;55.89;99404.59;5087405;28;20636;-80
2021/05/25 06:18:58;;;;;;;0.50;0.40;;;;;;;14.40;56.19;99435.31;5083023;28;20220;-80
2021/05/25 06:21:25;;;;;;;0.70;0.50;;;;;;;14.24;56.20;99415.38;5113405;28;20227;-80
2021/05/25 06:23:52;;;;;;;0.63;0.40;;;;;;;14.16;57.93;99441.94;5120317;28;20226;-80
2021/05/25 06:26:21;;;;;;;2.00;0.60;;;;;;;14.22;55.81;99428.28;5103092;28;20290;-80
2021/05/25 06:28:48;;;;;;;0.80;0.30;;;;;;;14.21;54.91;99432.03;5105815;28;20287;-80
2021/05/25 06:31:17;;;;;;;0.40;0.40;;;;;;;14.34;55.01;99447.03;5101459;28;20226;-81
2021/05/25 06:33:44;;;;;;;1.80;0.60;;;;;;;14.39;54.95;99439.06;5119792;28;20221;-80
2021/05/25 06:36:11;;;;;;;0.33;0.33;;;;;;;14.40;55.31;99444.22;5073601;28;20228;-80
2021/05/25 06:38:38;;;;;;;0.93;0.40;;;;;;;14.48;55.72;99453.72;5082461;28;20228;-80
2021/05/25 06:41:05;;;;;;;3.80;0.40;;;;;;;14.53;53.89;99451.94;5080907;28;20232;-80
2021/05/25 06:43:33;;;;;;;0.83;0.40;;;;;;;14.64;55.40;99452.88;5081881;28;20226;-80
2021/05/25 06:46:00;;;;;;;1.03;0.40;;;;;;;14.91;54.13;99451.06;5095904;28;20229;-80
2021/05/25 06:48:27;;;;;;;0.67;0.40;;;;;;;15.18;53.75;99458.38;5103601;28;20564;-80
2021/05/25 06:50:55;;;;;;;2.03;0.50;;;;;;;15.23;52.65;99463.81;5102945;28;20232;-80
2021/05/25 06:53:23;;;;;;;1.17;0.50;;;;;;;15.36;52.41;99477.72;5112863;28;20232;-80
2021/05/25 06:55:49;;;;;;;1.33;0.70;;;;;;;15.51;51.62;99479.81;5117549;28;20258;-79
2021/05/25 06:58:16;;;;;;;2.20;0.50;;;;;;;15.27;52.68;99473.84;5115448;28;20239;-80
2021/05/25 07:00:43;;;;;;;1.17;0.70;;;;;;;15.43;50.91;99466.75;5105535;28;20232;-80
2021/05/25 07:03:13;;;;;;;0.53;0.47;;;;;;;15.08;50.41;99447.44;5140948;22;20268;-78
2021/05/25 07:06:51;;;;;;;0.73;0.57;;;;;;;15.18;52.94;99479.94;5119930;22;20216;-78
2021/05/25 07:10:06;;;;;;;1.67;0.50;;;;;;;15.22;51.75;99465.69;5094251;22;20244;-77
2021/05/25 07:13:12;;;;;;;0.80;0.67;;;;;;;15.67;50.95;99484.28;5204267;22;20229;-77
2021/05/25 07:16:28;;;;;;;0.97;0.50;;;;;;;15.78;50.15;99477.88;5045874;22;20243;-77
2021/05/25 07:19:35;;;;;;;0.80;0.47;;;;;;;15.75;51.91;99504.59;5177014;23;20207;-76
2021/05/25 07:22:54;;;;;;;2.40;0.57;;;;;;;15.71;59.10;99485.41;5050466;22;20276;-77
2021/05/25 07:26:09;;;;;;;0.97;0.50;;;;;;;16.27;51.20;99477.75;5173032;23;20194;-78
2021/05/25 07:29:41;;;;;;;0.40;0.40;;;;;;;16.43;50.71;99478.63;5104820;23;20261;-81
2021/05/25 07:33:08;;;;;;;1.37;0.50;;;;;;;16.71;49.55;99495.31;5083128;23;20255;-79
2021/05/25 07:36:46;;;;;;;1.43;0.50;;;;;;;16.53;49.25;99462.47;5100436;23;20247;31
2021/05/25 07:39:53;;;;;;;1.50;0.60;;;;;;;16.72;49.99;99479.91;5111809;22;20242;-85
2021/05/25 07:42:32;;;;;;;0.83;0.50;;;;;;;16.54;49.89;99480.34;5096503;28;20269;-81
2021/05/25 07:44:59;;;;;;;1.43;0.50;;;;;;;16.86;49.36;99486.47;5080305;28;20228;-87
2021/05/25 07:47:29;;;;;;;0.60;0.50;;;;;;;16.58;47.17;99482.28;5031160;28;20224;-80
2021/05/25 07:50:15;;;;;;;1.20;0.60;;;;;;;16.81;48.15;99493.75;5069425;28;20250;-84
2021/05/25 07:52:58;;;;;;;0.67;0.50;;;;;;;17.27;46.75;99509.09;5071640;28;20271;-87
2021/05/25 07:55:27;;;;;;;0.70;0.50;;;;;;;17.03;46.15;99519.56;5064056;28;20267;-84
2021/05/25 07:57:55;;;;;;;0.70;0.53;;;;;;;17.16;46.67;99534.53;5046901;28;20315;-82
2021/05/25 08:00:24;;;;;;;0.63;0.50;;;;;;;17.23;45.58;99526.13;5044958;28;20243;-85
2021/05/25 08:02:51;;;;;;;0.97;0.63;;;;;;;17.60;46.28;99524.94;5045851;28;20235;-89
2021/05/25 08:05:18;;;;;;;1.03;0.60;;;;;;;17.59;45.47;99525.19;5045030;28;20224;-86
2021/05/25 08:07:45;;;;;;;1.17;0.70;;;;;;;17.64;45.91;99510.88;5031852;28;20660;-84
2021/05/25 08:10:13;;;;;;;1.13;0.60;;;;;;;17.66;45.60;99516.81;5042518;28;20236;-84
2021/05/25 08:12:40;;;;;;;0.90;0.70;;;;;;;18.18;45.43;99514.69;5050450;28;20229;-86
2021/05/25 08:15:09;;;;;;;2.80;0.50;;;;;;;18.31;41.40;99522.28;5022868;28;20295;-83
2021/05/25 08:20:17;;;;;;;0.63;0.50;;;;;;;18.30;42.03;99517.09;5055495;28;20708;-87
2021/05/25 08:23:07;;;;;;;1.00;0.63;;;;;;;18.54;41.72;99520.91;5036383;28;20226;-85
2021/05/25 08:25:35;;;;;;;2.47;0.67;;;;;;;18.92;41.38;99514.84;5036680;28;20276;-82
2021/05/25 08:28:03;;;;;;;2.57;0.60;;;;;;;18.88;40.87;99521.91;5018072;28;20320;-86
2021/05/25 08:30:33;;;;;;;1.47;0.60;;;;;;;18.82;39.55;99527.63;5030299;28;20279;-87
2021/05/25 08:33:00;;;;;;;1.87;0.60;;;;;;;18.66;40.01;99542.34;5008608;28;20237;-87
2021/05/25 08:35:35;;;;;;;1.43;0.70;;;;;;;18.40;40.27;99534.19;5043905;28;20328;-87
2021/05/25 08:38:04;;;;;;;1.17;0.50;;;;;;;18.67;40.83;99531.19;5046924;28;20267;-83
2021/05/25 08:40:32;;;;;;;1.23;0.60;;;;;;;18.41;39.96;99543.97;5011619;28;20340;-85
2021/05/25 08:43:00;;;;;;;1.23;0.60;;;;;;;18.24;41.09;99532.59;5026478;28;20246;-86
2021/05/25 08:45:27;;;;;;;4.07;0.70;;;;;;;17.99;40.50;99552.38;5018405;28;20634;-87
2021/05/25 08:47:55;;;;;;;0.73;0.60;;;;;;;18.20;41.19;99563.19;5047189;28;20633;-85
2021/05/25 08:50:42;;;;;;;1.20;0.70;;;;;;;18.38;40.60;99557.25;5055608;28;20241;-86
2021/05/25 08:53:09;;;;;;;0.50;0.50;;;;;;;18.50;41.50;99546.94;5041697;28;20234;-87
2021/05/25 08:55:37;;;;;;;1.00;0.80;;;;;;;18.56;40.38;99556.72;5002814;28;20238;-83
2021/05/25 08:58:05;;;;;;;2.23;0.53;;;;;;;18.64;39.60;99553.47;5033109;28;20225;-87
2021/05/25 09:00:33;;;;;;;1.13;0.80;;;;;;;19.17;38.93;99559.28;5035417;28;20317;-86
2021/05/25 09:03:00;;;;;;;0.90;0.70;;;;;;;19.46;38.30;99552.13;5029279;28;20649;-86
2021/05/25 09:05:27;;;;;;;1.03;0.90;;;;;;;19.41;38.26;99545.88;5038513;28;20225;-87
2021/05/25 09:07:58;;;;;;;1.80;0.70;;;;;;;19.08;37.92;99569.91;5038228;28;20263;-86
2021/05/25 09:10:37;;;;;;;1.00;0.70;;;;;;;18.64;38.81;99579.78;5052227;28;20560;-88
2021/05/25 09:13:23;;;;;;;0.50;0.50;;;;;;;18.85;38.92;99568.59;5039217;28;20229;-87
2021/05/25 09:15:53;;;;;;;1.13;0.60;;;;;;;19.17;38.67;99562.81;5033816;28;20222;-87
2021/05/25 09:18:23;;;;;;;1.70;0.70;;;;;;;19.70;38.17;99557.69;5025939;28;20565;-82
2021/05/25 09:20:52;;;;;;;1.57;0.60;;;;;;;19.68;38.06;99558.00;5047872;28;20226;-84
2021/05/25 09:23:43;;;;;;;1.17;0.70;;;;;;;19.50;37.61;99555.09;5026448;28;20256;-85
2021/05/25 09:26:14;;;;;;;0.70;0.60;;;;;;;18.80;38.89;99551.53;5017657;28;20226;-86
2021/05/25 09:29:02;;;;;;;0.97;0.50;;;;;;;18.54;37.66;99564.31;5043181;28;20229;-86
2021/05/25 09:31:35;;;;;;;1.10;0.60;;;;;;;18.25;39.22;99587.59;5070518;28;20230;-86
2021/05/25 09:34:16;;;;;;;3.03;2.40;;;;;;;18.14;39.39;99603.09;5037309;28;20329;-87
2021/05/25 09:37:05;;;;;;;1.00;0.70;;;;;;;17.60;39.92;99605.38;5054266;28;20520;-85
2021/05/25 09:39:33;;;;;;;1.77;0.57;;;;;;;17.45;41.18;99610.72;5049005;28;20230;-86
2021/05/25 09:42:03;;;;;;;1.77;0.70;;;;;;;17.51;41.65;99609.66;5050251;28;20230;-86
2021/05/25 09:44:30;;;;;;;1.33;0.60;;;;;;;17.49;41.39;99596.41;5020190;28;20226;-87
2021/05/25 09:46:59;;;;;;;1.37;0.70;;;;;;;17.41;42.19;99590.66;5037266;28;20245;-87
2021/05/25 09:49:26;;;;;;;0.83;0.60;;;;;;;17.29;40.46;99600.91;5049950;28;20226;-87
2021/05/25 09:52:07;;;;;;;1.27;0.50;;;;;;;17.40;40.94;99608.81;5001659;28;20313;-85
2021/05/25 09:54:34;;;;;;;2.97;0.67;;;;;;;17.81;40.20;99617.09;5030908;28;20238;-87
2021/05/25 09:57:04;;;;;;;1.60;0.70;;;;;;;17.96;39.46;99611.72;5033990;28;20464;-86
2021/05/25 09:59:33;;;;;;;1.60;0.50;;;;;;;18.09;38.73;99637.50;5049442;28;20229;-86
2021/05/25 10:02:20;;;;;;;1.33;0.50;;;;;;;18.22;38.42;99631.56;5037418;28;20287;-86
2021/05/25 10:05:04;;;;;;;2.33;0.57;;;;;;;18.28;37.78;99615.03;5033372;28;20225;-86
2021/05/25 10:07:34;;;;;;;1.67;0.60;;;;;;;18.69;36.79;99625.91;5051445;28;20338;-86
2021/05/25 10:10:04;;;;;;;1.37;0.60;;;;;;;19.11;35.88;99625.56;5036855;28;20236;-86
2021/05/25 10:12:31;;;;;;;1.13;0.70;;;;;;;19.30;34.61;99632.03;5054534;28;20255;-86
2021/05/25 10:14:59;;;;;;;0.50;0.50;;;;;;;19.21;33.22;99620.94;5037051;28;20648;-81
2021/05/25 10:19:59;;;;;;;1.23;0.50;;;;;;;19.22;32.73;99614.38;5037055;28;20633;-80
2021/05/25 10:22:26;;;;;;;1.60;0.87;;;;;;;19.35;33.10;99604.84;5034716;28;20229;-82
2021/05/25 10:24:53;;;;;;;0.67;0.50;;;;;;;19.48;32.56;99622.50;5048203;28;20225;-86
2021/05/25 10:27:20;;;;;;;0.70;0.40;;;;;;;19.44;33.00;99633.09;5036685;28;20225;-88
2021/05/25 10:29:47;;;;;;;0.70;0.40;;;;;;;19.83;32.48;99630.47;5053333;28;20237;-87
2021/05/25 10:32:21;;;;;;;0.40;0.40;;;;;;;19.49;33.25;99622.22;5036640;28;20229;-80
2021/05/25 10:34:52;;;;;;;1.83;0.40;;;;;;;19.04;32.73;99623.13;5042350;28;20249;-87
2021/05/25 10:37:20;;;;;;;0.90;0.40;;;;;;;18.85;33.72;99630.22;5037565;28;20287;-87
2021/05/25 10:39:52;;;;;;;1.20;0.43;;;;;;;19.16;31.72;99639.94;5025180;28;20585;-88
2021/05/25 10:42:19;;;;;;;0.63;0.40;;;;;;;19.00;32.58;99626.66;5040619;28;20275;-86
2021/05/25 10:45:09;;;;;;;1.93;0.47;;;;;;;19.54;31.83;99615.94;5046557;28;20237;-83
2021/05/25 10:53:09;;;;;;;1.17;0.50;;;;;;;19.89;31.53;99621.19;5056426;28;20228;-86
2021/05/25 10:55:42;;;;;;;1.37;0.50;;;;;;;19.95;30.17;99611.09;5040561;28;20644;-87
2021/05/25 10:58:18;;;;;;;1.17;0.60;;;;;;;20.35;29.79;99632.63;5040429;28;20253;-87
2021/05/25 11:00:45;;;;;;;1.43;0.40;;;;;;;20.24;30.87;99631.06;5051530;28;20225;-84
2021/05/25 11:03:12;;;;;;;1.37;0.60;;;;;;;20.03;30.67;99635.78;5037037;28;20695;-84
2021/05/25 11:05:46;;;;;;;1.00;0.40;;;;;;;19.79;29.91;99627.50;5053050;28;20227;-86
2021/05/25 11:08:13;;;;;;;0.73;0.40;;;;;;;19.55;31.55;99634.66;5057594;28;20564;-87
2021/05/25 11:10:41;;;;;;;1.03;0.50;;;;;;;19.81;31.57;99640.81;5049940;28;20244;-85
2021/05/25 11:13:14;;;;;;;0.73;0.50;;;;;;;19.04;32.33;99650.28;5056668;28;20283;-84
2021/05/25 11:16:07;;;;;;;1.50;0.70;;;;;;;18.62;32.63;99650.59;5039948;28;20263;-88
2021/05/25 11:21:46;;;;;;;1.40;0.63;;;;;;;17.09;35.12;99664.69;5041711;28;20226;-87
2021/05/25 11:24:41;;;;;;;1.63;0.60;;;;;;;16.99;36.68;99688.16;5056100;28;20225;-88
2021/05/25 11:27:30;;;;;;;1.30;0.60;;;;;;;16.61;36.95;99698.13;5056552;28;20218;-85
2021/05/25 11:30:02;;;;;;;1.83;0.70;;;;;;;16.58;37.32;99703.25;5056134;28;20234;-81
2021/05/25 11:32:30;;;;;;;2.43;0.67;;;;;;;16.41;37.55;99703.34;5042716;28;20562;-89
2021/05/25 11:35:00;;;;;;;1.37;0.57;;;;;;;16.28;37.71;99695.63;5043186;28;20217;-88
2021/05/25 11:37:31;;;;;;;2.17;0.67;;;;;;;16.46;38.36;99689.88;5043223;28;20233;-88
2021/05/25 11:39:59;;;;;;;1.40;0.50;;;;;;;16.63;37.66;99701.41;5038544;28;20529;-84
2021/05/25 11:42:31;;;;;;;0.70;0.40;;;;;;;16.49;37.95;99693.94;5045851;28;20308;-88
2021/05/25 11:44:58;;;;;;;1.30;0.60;;;;;;;16.69;37.45;99711.22;5024589;28;20504;-87
2021/05/25 11:47:25;;;;;;;0.60;0.53;;;;;;;16.98;37.53;99703.56;5040132;28;20240;-87
2021/05/25 11:49:52;;;;;;;0.87;0.40;;;;;;;17.14;38.04;99704.50;5055342;28;20635;-86
2021/05/25 11:52:19;;;;;;;1.97;0.77;;;;;;;17.25;36.73;99705.41;5024048;28;20514;-86
2021/05/25 11:54:47;;;;;;;0.90;0.60;;;;;;;17.17;35.79;99693.97;5039921;28;20316;-88
2021/05/25 11:57:40;;;;;;;2.77;0.60;;;;;;;17.32;36.11;99700.56;5023539;28;20236;-82
2021/05/25 12:00:17;;;;;;;1.40;0.60;;;;;;;17.43;33.45;99686.81;5040299;28;20224;-87
2021/05/25 12:02:46;;;;;;;1.20;0.57;;;;;;;17.46;34.40;99690.88;5043702;28;20235;-87
2021/05/25 12:05:19;;;;;;;1.83;0.87;;;;;;;17.53;35.04;99705.03;5043201;28;20255;-85
2021/05/25 12:07:51;;;;;;;3.10;1.10;;;;;;;17.63;35.16;99701.56;5039921;28;20617;-87
2021/05/25 12:10:23;;;;;;;1.63;0.60;;;;;;;17.63;35.34;99688.84;5022669;28;20263;-87
2021/05/25 12:12:51;;;;;;;2.13;0.73;;;;;;;17.66;35.09;99684.78;5039806;28;20232;-87
2021/05/25 12:15:24;;;;;;;1.87;0.60;;;;;;;17.83;35.30;99678.06;5022471;28;20222;-87
2021/05/25 12:17:52;;;;;;;1.90;0.50;;;;;;;18.52;34.01;99685.03;5038438;28;20229;-88